createdAt,value
2018-03-22T00:01:17.172Z,3.50
2018-03-22T00:03:45.391Z,3.60
2018-03-22T00:06:13.513Z,3.40
2018-03-22T00:08:41.723Z,3.50
2018-03-22T00:11:09.864Z,3.40
2018-03-22T00:13:37.993Z,3.40
2018-03-22T00:16:06.165Z,3.30
2018-03-22T00:18:34.293Z,3.10
2018-03-22T00:21:03.203Z,3.00
2018-03-22T00:23:31.320Z,2.90
2018-03-22T00:25:59.488Z,2.80
2018-03-22T00:28:27.607Z,2.70
2018-03-22T00:30:56.493Z,2.70
2018-03-22T00:33:25.410Z,3.10
2018-03-22T00:35:54.367Z,3.00
2018-03-22T00:38:23.266Z,2.80
2018-03-22T00:40:52.175Z,2.60
2018-03-22T00:43:20.319Z,2.90
2018-03-22T00:45:48.432Z,2.60
2018-03-22T00:48:16.583Z,2.60
2018-03-22T00:50:44.705Z,2.60
2018-03-22T00:53:12.844Z,2.70
2018-03-22T00:55:40.988Z,2.80
2018-03-22T00:58:09.879Z,2.80
2018-03-22T01:00:38.779Z,2.60
2018-03-22T01:03:07.680Z,2.60
2018-03-22T01:05:35.832Z,2.70
2018-03-22T01:08:04.744Z,2.70
2018-03-22T01:10:32.861Z,2.60
2018-03-22T01:13:01.007Z,2.80
2018-03-22T01:15:29.155Z,2.80
2018-03-22T01:17:57.287Z,2.60
2018-03-22T01:20:25.422Z,2.50
2018-03-22T01:22:53.540Z,2.40
2018-03-22T01:25:22.485Z,2.50
2018-03-22T01:27:50.603Z,2.40
2018-03-22T01:30:34.515Z,2.20
2018-03-22T01:33:02.660Z,2.40
2018-03-22T01:35:30.805Z,2.50
2018-03-22T01:37:59.719Z,2.20
2018-03-22T01:40:27.844Z,2.20
2018-03-22T01:42:55.995Z,2.30
2018-03-22T01:45:24.131Z,2.30
2018-03-22T01:47:52.307Z,2.20
2018-03-22T01:50:20.469Z,2.50
2018-03-22T01:53:06.579Z,2.20
2018-03-22T01:55:35.370Z,2.30
2018-03-22T01:58:03.504Z,2.40
2018-03-22T02:00:32.397Z,2.50
2018-03-22T02:03:01.396Z,2.40
2018-03-22T02:05:30.284Z,2.30
2018-03-22T02:07:59.190Z,2.10
2018-03-22T02:10:27.312Z,2.30
2018-03-22T02:12:55.868Z,2.10
2018-03-22T02:15:24.029Z,2.00
2018-03-22T02:17:52.172Z,2.10
2018-03-22T02:20:21.081Z,2.40
2018-03-22T02:22:49.256Z,2.30
2018-03-22T02:25:17.395Z,2.50
2018-03-22T02:27:46.293Z,2.40
2018-03-22T02:30:15.192Z,2.30
2018-03-22T02:32:43.960Z,2.30
2018-03-22T02:35:12.851Z,2.20
2018-03-22T02:37:41.774Z,2.10
2018-03-22T02:40:09.899Z,2.40
2018-03-22T02:42:38.054Z,2.40
2018-03-22T02:45:06.185Z,2.50
2018-03-22T02:47:34.362Z,2.30
2018-03-22T02:50:02.508Z,2.30
2018-03-22T02:52:31.742Z,2.10
2018-03-22T02:54:59.860Z,2.00
2018-03-22T02:57:28.079Z,2.20
2018-03-22T02:59:56.195Z,2.30
2018-03-22T03:02:24.317Z,2.30
2018-03-22T03:04:52.499Z,2.30
2018-03-22T03:07:20.625Z,2.30
2018-03-22T03:09:48.904Z,2.30
2018-03-22T03:12:17.027Z,2.20
2018-03-22T03:14:45.303Z,2.20
2018-03-22T03:17:13.460Z,2.40
2018-03-22T03:19:41.584Z,2.40
2018-03-22T03:22:09.731Z,2.30
2018-03-22T03:24:37.859Z,2.30
2018-03-22T03:27:06.755Z,2.40
2018-03-22T03:29:34.901Z,2.60
2018-03-22T03:32:03.791Z,2.50
2018-03-22T03:34:31.944Z,2.20
2018-03-22T03:37:00.084Z,2.30
2018-03-22T05:01:26.623Z,1.80
2018-03-22T05:03:54.791Z,1.90
2018-03-22T05:06:22.912Z,2.00
2018-03-22T05:08:51.031Z,2.00
2018-03-22T05:11:19.173Z,2.10
2018-03-22T05:13:47.282Z,2.20
2018-03-22T05:16:15.423Z,2.10
2018-03-22T05:18:44.308Z,1.90
2018-03-22T05:21:12.512Z,2.10
2018-03-22T05:23:40.687Z,1.90
2018-03-22T05:26:09.899Z,2.00
2018-03-22T05:28:38.040Z,2.10
2018-03-22T05:31:07.005Z,2.00
2018-03-22T05:33:35.139Z,1.90
2018-03-22T05:36:03.284Z,2.10
2018-03-22T05:38:31.424Z,2.10
2018-03-22T05:40:59.563Z,2.30
2018-03-22T05:43:27.685Z,2.30
2018-03-22T05:45:56.612Z,2.20
2018-03-22T05:48:24.740Z,2.30
2018-03-22T05:50:53.633Z,2.30
2018-03-22T05:53:22.540Z,2.40
2018-03-22T05:55:50.660Z,2.40
2018-03-22T05:58:18.916Z,2.50
2018-03-22T06:00:47.032Z,2.40
2018-03-22T06:03:15.243Z,2.60
2018-03-22T06:05:43.411Z,2.50
2018-03-22T06:08:11.586Z,2.40
2018-03-22T06:10:39.714Z,2.60
2018-03-22T06:13:07.864Z,2.50
2018-03-22T06:15:36.108Z,2.70
2018-03-22T06:18:04.231Z,2.70
2018-03-22T06:20:32.347Z,2.60
2018-03-22T06:23:00.496Z,2.60
2018-03-22T06:25:29.415Z,2.90
2018-03-22T06:27:57.538Z,2.80
2018-03-22T06:30:25.752Z,3.00
2018-03-22T06:32:53.939Z,3.10
2018-03-22T06:35:22.823Z,3.10
2018-03-22T06:37:50.949Z,3.10
2018-03-22T06:40:19.073Z,3.20
2018-03-22T06:42:47.235Z,3.40
2018-03-22T06:45:15.371Z,3.30
2018-03-22T06:47:43.488Z,3.40
2018-03-22T06:50:11.632Z,3.20
2018-03-22T06:52:40.539Z,3.20
2018-03-22T06:55:08.681Z,3.40
2018-03-22T06:57:37.603Z,3.30
2018-03-22T07:00:05.748Z,3.20
2018-03-22T07:02:34.663Z,3.30
2018-03-22T07:05:02.788Z,3.20
2018-03-22T07:07:30.922Z,2.90
2018-03-22T07:09:59.076Z,3.00
2018-03-22T07:12:27.199Z,2.90
2018-03-22T07:14:55.344Z,3.00
2018-03-22T07:17:23.574Z,2.40
2018-03-22T07:19:52.466Z,2.30
2018-03-22T07:22:21.894Z,2.10
2018-03-22T07:24:50.039Z,2.40
2018-03-22T07:27:18.923Z,2.20
2018-03-22T07:29:47.056Z,1.90
2018-03-22T07:32:15.199Z,1.80
2018-03-22T07:34:43.333Z,1.80
2018-03-22T07:37:11.491Z,1.60
2018-03-22T07:39:39.611Z,1.40
2018-03-22T07:42:07.783Z,1.40
2018-03-22T07:44:40.927Z,1.40
2018-03-22T07:47:09.053Z,1.30
2018-03-22T07:49:37.199Z,1.40
2018-03-22T07:52:06.092Z,1.50
2018-03-22T07:54:34.975Z,1.60
2018-03-22T07:57:03.879Z,1.60
2018-03-22T07:59:32.039Z,1.70
2018-03-22T08:02:00.920Z,1.70
2018-03-22T08:04:30.324Z,1.80
2018-03-22T08:06:59.236Z,2.10
2018-03-22T08:09:27.357Z,2.30
2018-03-22T08:11:55.496Z,2.20
2018-03-22T08:14:23.655Z,2.30
2018-03-22T08:16:51.791Z,2.30
2018-03-22T08:19:19.936Z,2.50
2018-03-22T08:21:48.048Z,2.70
2018-03-22T08:24:16.958Z,2.50
2018-03-22T08:26:45.076Z,2.30
2018-03-22T08:29:13.316Z,2.40
2018-03-22T08:31:41.435Z,2.20
2018-03-22T08:34:09.556Z,2.30
2018-03-22T08:36:37.718Z,2.10
2018-03-22T08:39:05.860Z,2.20
2018-03-22T08:41:34.004Z,2.00
2018-03-22T08:44:02.155Z,2.10
2018-03-22T08:46:30.302Z,2.10
2018-03-22T08:48:59.192Z,2.20
2018-03-22T08:51:28.112Z,2.10
2018-03-22T08:53:56.270Z,2.20
2018-03-22T08:56:24.399Z,2.10
2018-03-22T08:58:52.547Z,1.70
2018-03-22T09:01:20.671Z,1.70
2018-03-22T09:03:49.579Z,1.70
2018-03-22T09:06:17.725Z,1.90
2018-03-22T09:08:47.195Z,1.80
2018-03-22T09:11:15.312Z,1.80
2018-03-22T09:13:43.713Z,1.70
2018-03-22T09:16:11.865Z,1.90
2018-03-22T09:18:40.023Z,2.20
2018-03-22T09:21:08.911Z,2.20
2018-03-22T09:23:37.812Z,2.30
2018-03-22T09:26:06.815Z,2.40
2018-03-22T09:28:34.936Z,2.30
2018-03-22T09:31:03.083Z,2.40
2018-03-22T09:33:31.208Z,2.70
2018-03-22T09:36:00.091Z,2.60
2018-03-22T09:38:28.232Z,2.50
2018-03-22T09:40:56.367Z,2.50
2018-03-22T09:43:24.563Z,2.40
2018-03-22T09:45:53.186Z,2.30
2018-03-22T09:48:21.335Z,2.30
2018-03-22T09:50:49.452Z,2.00
2018-03-22T09:53:18.352Z,2.10
2018-03-22T09:55:46.490Z,1.90
2018-03-22T09:58:14.615Z,2.00
2018-03-22T10:00:42.767Z,2.20
2018-03-22T10:03:10.888Z,1.80
2018-03-22T10:05:39.036Z,1.70
2018-03-22T10:08:07.156Z,1.70
2018-03-22T10:10:35.280Z,1.90
2018-03-22T10:13:03.416Z,1.80
2018-03-22T10:15:32.307Z,1.80
2018-03-22T10:18:01.932Z,1.80
2018-03-22T10:20:30.067Z,2.10
2018-03-22T10:22:58.211Z,2.10
2018-03-22T10:25:26.327Z,2.10
2018-03-22T10:27:55.355Z,2.00
2018-03-22T10:30:23.492Z,2.10
2018-03-22T10:32:51.659Z,2.10
2018-03-22T10:35:20.567Z,2.10
2018-03-22T10:37:48.691Z,2.20
2018-03-22T10:40:16.932Z,2.30
2018-03-22T10:42:45.096Z,2.80
2018-03-22T10:45:13.215Z,2.60
2018-03-22T10:47:41.371Z,2.40
2018-03-22T10:50:09.523Z,2.30
2018-03-22T10:52:37.644Z,2.30
2018-03-22T10:55:05.772Z,2.30
2018-03-22T10:57:33.913Z,2.30
2018-03-22T11:00:02.065Z,2.40
2018-03-22T11:02:35.897Z,2.40
2018-03-22T11:05:04.072Z,2.50
2018-03-22T11:07:32.260Z,2.70
2018-03-22T11:10:00.384Z,2.60
2018-03-22T11:12:28.536Z,2.60
2018-03-22T11:14:56.675Z,2.60
2018-03-22T11:17:24.801Z,2.70
2018-03-22T11:19:52.948Z,2.50
2018-03-22T11:22:21.188Z,2.70
2018-03-22T11:24:49.332Z,2.90
2018-03-22T11:27:18.806Z,2.80
2018-03-22T11:29:46.930Z,2.70
2018-03-22T11:32:15.103Z,2.90
2018-03-22T11:34:43.256Z,3.00
2018-03-22T11:37:12.576Z,2.80
2018-03-22T11:39:40.723Z,2.90
2018-03-22T11:42:09.614Z,2.80
2018-03-22T11:44:38.537Z,3.00
2018-03-22T11:47:06.732Z,3.10
2018-03-22T11:49:34.888Z,3.20
2018-03-22T11:52:03.024Z,3.20
2018-03-22T11:54:31.911Z,3.10
2018-03-22T11:57:00.831Z,3.10
2018-03-22T11:59:28.999Z,3.00
2018-03-22T12:01:57.144Z,2.90
2018-03-22T12:04:25.296Z,3.00
2018-03-22T12:06:53.677Z,2.80
2018-03-22T12:09:21.806Z,2.90
2018-03-22T12:11:49.947Z,2.80
2018-03-22T12:14:18.844Z,2.80
2018-03-22T12:16:46.993Z,2.90
2018-03-22T12:19:15.122Z,3.20
2018-03-22T12:21:43.295Z,3.30
2018-03-22T12:24:12.167Z,3.20
2018-03-22T12:26:40.292Z,3.10
2018-03-22T12:29:08.452Z,3.20
2018-03-22T12:31:36.679Z,3.30
2018-03-22T12:34:04.811Z,3.20
2018-03-22T12:36:32.936Z,3.50
2018-03-22T12:39:01.085Z,3.70
2018-03-22T12:41:29.244Z,3.60
2018-03-22T12:43:58.173Z,3.50
2018-03-22T12:46:26.311Z,3.70
2018-03-22T12:48:55.232Z,3.80
2018-03-22T12:51:23.371Z,3.80
2018-03-22T12:53:53.059Z,3.70
2018-03-22T12:56:21.184Z,3.60
2018-03-22T12:58:49.316Z,3.60
2018-03-22T13:01:18.241Z,3.60
2018-03-22T13:03:46.388Z,4.10
2018-03-22T13:06:15.324Z,4.00
2018-03-22T13:08:43.471Z,3.60
2018-03-22T13:11:11.629Z,3.70
2018-03-22T13:13:40.519Z,3.90
2018-03-22T13:16:09.427Z,3.80
2018-03-22T13:18:37.552Z,3.90
2018-03-22T13:21:05.720Z,4.00
2018-03-22T13:23:33.868Z,4.00
2018-03-22T13:26:02.001Z,3.90
2018-03-22T13:28:30.136Z,4.00
2018-03-22T13:30:58.287Z,4.00
2018-03-22T13:33:26.441Z,4.10
2018-03-22T13:35:54.620Z,4.00
2018-03-22T13:38:22.727Z,3.70
2018-03-22T13:40:50.952Z,3.80
2018-03-22T13:43:19.125Z,3.90
2018-03-22T13:45:47.358Z,3.70
2018-03-22T13:48:16.255Z,3.90
2018-03-22T13:50:45.144Z,3.80
2018-03-22T13:53:14.072Z,3.90
2018-03-22T13:55:42.198Z,4.10
2018-03-22T13:58:10.335Z,4.00
2018-03-22T14:00:38.484Z,4.40
2018-03-22T14:03:06.624Z,4.70
2018-03-22T14:05:34.776Z,4.40
2018-03-22T14:08:02.904Z,4.30
2018-03-22T14:10:31.529Z,4.30
2018-03-22T14:12:59.696Z,4.30
2018-03-22T14:15:27.816Z,4.20
2018-03-22T14:17:55.945Z,4.00
2018-03-22T14:20:24.100Z,4.00
2018-03-22T14:22:52.248Z,4.30
2018-03-22T14:25:20.426Z,4.10
2018-03-22T14:27:48.592Z,4.50
2018-03-22T14:30:16.720Z,4.30
2018-03-22T14:32:44.964Z,4.30
2018-03-22T14:35:13.232Z,4.30
2018-03-22T14:37:41.357Z,4.10
2018-03-22T14:40:10.247Z,4.30
2018-03-22T14:42:40.131Z,4.30
2018-03-22T14:45:08.768Z,4.20
2018-03-22T14:47:36.935Z,3.90
2018-03-22T14:50:05.604Z,4.20
2018-03-22T14:52:34.488Z,4.10
2018-03-22T14:55:03.409Z,4.10
2018-03-22T14:57:31.528Z,4.10
2018-03-22T14:59:59.800Z,4.00
2018-03-22T15:02:27.960Z,4.00
2018-03-22T15:04:56.132Z,4.10
2018-03-22T15:07:24.257Z,4.20
2018-03-22T15:09:52.379Z,4.40
2018-03-22T15:12:20.715Z,4.10
2018-03-22T15:14:48.863Z,4.50
2018-03-22T15:17:17.943Z,4.40
2018-03-22T15:19:46.678Z,4.30
2018-03-22T15:22:14.864Z,4.10
2018-03-22T15:24:43.265Z,4.70
2018-03-22T15:27:11.380Z,4.50
2018-03-22T15:29:39.831Z,4.20
2018-03-22T15:32:07.995Z,4.30
2018-03-22T15:34:36.133Z,4.20
2018-03-22T15:37:04.277Z,4.00
2018-03-22T15:39:33.206Z,4.30
2018-03-22T15:42:01.335Z,4.20
2018-03-22T15:44:30.219Z,4.20
2018-03-22T15:46:59.644Z,4.30
2018-03-22T15:49:27.771Z,4.50
2018-03-22T15:51:55.922Z,4.40
2018-03-22T15:54:24.101Z,4.50
2018-03-22T15:56:52.223Z,4.40
2018-03-22T15:59:21.227Z,4.40
2018-03-22T16:01:49.387Z,4.50
2018-03-22T16:04:17.552Z,4.60
2018-03-22T16:06:46.584Z,4.70
2018-03-22T16:09:15.296Z,4.80
2018-03-22T16:11:44.267Z,4.60
2018-03-22T16:14:12.392Z,4.60
2018-03-22T16:16:41.416Z,4.50
2018-03-22T16:19:09.587Z,4.40
2018-03-22T16:21:37.732Z,4.50
2018-03-22T16:24:06.661Z,4.80
2018-03-22T16:26:36.908Z,4.70
2018-03-22T16:29:06.053Z,4.40
2018-03-22T16:31:34.299Z,4.30
2018-03-22T16:34:13.832Z,4.20
2018-03-22T16:36:44.263Z,4.30
2018-03-22T16:39:12.395Z,4.40
2018-03-22T16:41:41.143Z,4.30
2018-03-22T16:44:10.140Z,4.20
2018-03-22T16:46:38.270Z,4.20
2018-03-22T16:49:06.411Z,4.30
2018-03-22T16:51:34.566Z,4.40
2018-03-22T16:54:02.697Z,4.50
2018-03-22T16:56:30.844Z,4.40
2018-03-22T16:58:59.092Z,4.10
2018-03-22T17:01:27.320Z,4.40
2018-03-22T17:03:55.494Z,4.30
2018-03-22T17:06:24.405Z,4.50
2018-03-22T17:08:53.303Z,4.50
2018-03-22T17:11:21.450Z,4.30
2018-03-22T17:13:49.654Z,4.20
2018-03-22T17:16:17.936Z,4.50
2018-03-22T17:18:46.117Z,4.40
2018-03-22T17:21:14.418Z,4.20
2018-03-22T17:23:42.568Z,4.20
2018-03-22T17:26:10.719Z,4.20
2018-03-22T17:28:39.074Z,4.20
2018-03-22T17:31:07.966Z,4.30
2018-03-22T17:33:37.075Z,4.20
2018-03-22T17:36:06.070Z,4.10
2018-03-22T17:38:34.318Z,4.40
2018-03-22T17:41:02.479Z,4.20
2018-03-22T17:43:30.634Z,4.20
2018-03-22T17:45:58.755Z,4.00
2018-03-22T17:48:27.661Z,4.10
2018-03-22T17:50:55.847Z,4.30
2018-03-22T17:53:23.967Z,4.30
2018-03-22T17:55:52.187Z,4.30
2018-03-22T17:58:20.387Z,4.10
2018-03-22T18:00:48.706Z,4.00
2018-03-22T18:03:17.641Z,4.20
2018-03-22T18:05:46.646Z,4.20
2018-03-22T18:08:14.824Z,4.20
2018-03-22T18:10:43.787Z,4.20
2018-03-22T18:13:11.971Z,4.20
2018-03-22T18:15:40.112Z,4.10
2018-03-22T18:18:08.252Z,4.30
2018-03-22T18:20:36.400Z,4.40
2018-03-22T18:23:04.533Z,4.20
2018-03-22T18:25:32.708Z,4.20
2018-03-22T18:28:01.232Z,4.20
2018-03-22T18:30:29.404Z,4.30
2018-03-22T18:32:57.533Z,4.60
2018-03-22T18:35:25.732Z,4.40
2018-03-22T18:38:03.756Z,4.60
2018-03-22T18:40:31.921Z,4.20
2018-03-22T18:43:00.060Z,4.60
2018-03-22T18:45:28.184Z,4.50
2018-03-22T18:47:56.323Z,4.30
2018-03-22T18:50:24.444Z,4.60
2018-03-22T18:52:53.358Z,4.60
2018-03-22T18:55:21.480Z,4.60
2018-03-22T18:57:49.616Z,4.20
2018-03-22T19:00:17.758Z,4.10
2018-03-22T19:02:46.673Z,4.30
2018-03-22T19:05:14.847Z,4.20
2018-03-22T19:07:42.992Z,4.10
2018-03-22T19:10:11.893Z,4.30
2018-03-22T19:12:40.799Z,4.40
2018-03-22T19:15:08.920Z,4.40
2018-03-22T19:17:37.069Z,4.80
2018-03-22T19:20:05.248Z,4.70
2018-03-22T19:22:33.382Z,4.50
2018-03-22T19:25:01.503Z,4.50
2018-03-22T19:27:29.736Z,4.40
2018-03-22T19:29:57.861Z,4.60
2018-03-22T19:32:26.083Z,4.70
2018-03-22T19:34:54.255Z,4.60
2018-03-22T19:37:22.422Z,4.70
2018-03-22T19:39:51.358Z,4.70
2018-03-22T19:42:19.511Z,4.70
2018-03-22T19:44:47.640Z,4.90
2018-03-22T19:47:16.577Z,4.80
2018-03-22T19:49:44.721Z,4.80
2018-03-22T19:52:12.877Z,5.00
2018-03-22T19:54:41.818Z,4.90
2018-03-22T19:57:09.957Z,4.60
2018-03-22T19:59:38.107Z,4.70
2018-03-22T20:02:07.028Z,4.60
2018-03-22T20:04:35.165Z,4.80
2018-03-22T20:07:04.126Z,5.00
2018-03-22T20:09:33.098Z,4.90
2018-03-22T20:12:01.226Z,4.70
2018-03-22T20:14:30.125Z,4.70
2018-03-22T20:16:58.627Z,4.80
2018-03-22T20:19:26.776Z,4.60
2018-03-22T20:21:54.926Z,4.60
2018-03-22T20:24:23.889Z,4.80
2018-03-22T20:26:52.021Z,5.00
2018-03-22T20:29:20.253Z,4.80
2018-03-22T20:31:48.481Z,4.70
2018-03-22T20:34:17.445Z,4.90
2018-03-22T20:36:46.371Z,4.90
2018-03-22T20:39:14.514Z,4.90
2018-03-22T20:41:42.681Z,4.80
2018-03-22T20:44:11.593Z,4.90
2018-03-22T20:46:39.985Z,5.20
2018-03-22T20:49:08.142Z,4.70
2018-03-22T20:51:36.357Z,4.90
2018-03-22T20:54:04.508Z,4.80
2018-03-22T20:56:32.636Z,5.00
2018-03-22T20:59:01.561Z,5.20
2018-03-22T21:01:29.703Z,5.00
2018-03-22T21:03:58.648Z,5.00
2018-03-22T21:06:26.800Z,4.70
2018-03-22T21:08:54.947Z,4.80
2018-03-22T21:11:23.067Z,4.70
2018-03-22T21:13:51.496Z,4.80
2018-03-22T21:16:20.380Z,4.80
2018-03-22T21:18:49.671Z,5.20
2018-03-22T21:21:18.566Z,5.20
2018-03-22T21:23:47.459Z,4.80
2018-03-22T21:26:17.195Z,4.90
2018-03-22T21:28:51.203Z,5.00
2018-03-22T21:31:19.367Z,5.40
2018-03-22T21:33:47.517Z,5.30
2018-03-22T21:36:16.432Z,5.90
2018-03-22T21:38:44.603Z,6.30
2018-03-22T21:41:12.768Z,6.10
2018-03-22T21:46:46.287Z,6.50
2018-03-22T21:49:14.414Z,6.80
2018-03-22T21:54:35.836Z,6.50
2018-03-22T21:57:03.972Z,5.80
2018-03-22T21:59:32.091Z,6.00
2018-03-22T22:02:00.236Z,5.80
2018-03-22T22:04:28.388Z,5.50
2018-03-22T22:06:57.043Z,5.50
2018-03-22T22:09:26.387Z,5.50
2018-03-22T22:11:54.526Z,5.70
2018-03-22T22:14:23.425Z,5.60
2018-03-22T22:16:51.587Z,5.70
2018-03-22T22:19:20.468Z,5.70
2018-03-22T22:21:49.356Z,6.60
2018-03-22T22:24:18.264Z,6.60
2018-03-22T22:26:46.392Z,6.20
2018-03-22T22:29:14.539Z,5.70
2018-03-22T22:31:42.668Z,6.00
2018-03-22T22:34:11.587Z,6.20
2018-03-22T22:36:39.719Z,6.20
2018-03-22T22:39:07.863Z,6.30
2018-03-22T22:41:35.983Z,6.50
2018-03-22T22:44:04.108Z,6.70
2018-03-22T22:46:32.249Z,6.20
2018-03-22T22:49:00.387Z,6.70
2018-03-22T22:51:29.308Z,6.30
2018-03-22T22:53:57.437Z,6.30
2018-03-22T22:56:25.559Z,6.70
2018-03-22T22:58:53.717Z,6.80
2018-03-22T23:01:21.900Z,6.90
2018-03-22T23:03:50.035Z,6.50
2018-03-22T23:06:18.959Z,6.30
2018-03-22T23:08:47.109Z,7.00
2018-03-22T23:11:16.640Z,7.50
2018-03-22T23:13:44.799Z,7.50
2018-03-22T23:16:12.919Z,7.70
2018-03-22T23:18:41.072Z,7.40
2018-03-22T23:21:09.226Z,7.50
2018-03-22T23:23:37.399Z,7.20
2018-03-22T23:26:05.552Z,7.60
2018-03-22T23:28:34.460Z,7.50
2018-03-22T23:31:02.595Z,7.40
2018-03-22T23:33:31.508Z,7.40
2018-03-22T23:35:59.680Z,7.40
2018-03-22T23:38:27.864Z,7.70
2018-03-22T23:40:56.500Z,7.10
2018-03-22T23:43:24.660Z,6.80
2018-03-22T23:45:52.783Z,7.60
2018-03-22T23:48:20.925Z,7.50
2018-03-22T23:50:49.067Z,7.30
2018-03-22T23:53:17.221Z,7.30
2018-03-22T23:55:45.364Z,7.60
2018-03-22T23:58:14.292Z,7.80
